Massillon, Ohio
Current Conditions -  °F | °C
As of 9:51 PM on Friday 21 Nov 2014 (Local Time) from KCAK Reporting Station
Clear Clear  
Wind Chill:   Ceiling: Unl
Heat Index: 19°   Visibility: 10mi
Dew Point:   Wind: 8mph
Humidity: 62%   Direction: 200°SSW
Pressure: 30.4"   Gusts: NA
Location:  40.79°N, 81.52°W
Report Text: KCAK 220251Z 20007KT 10SM CLR M07/M13 A3040 RMK AO2 SLP315 T10721133 58015
Loading
Personal Weather Stations






























Interactive Weather Map New forecast layout! Learn more

10-Day Weather Forecast

Advertisements
Track Severe Weather on mobile